Time;durP1;ratioP1;P1;durP2;ratioP2;P2;SDS_P1;SDS_P2;PMS_P1;PMS_P2;Temp;Humidity;BMP_temperature;BMP_pressure;BME280_temperature;BME280_humidity;BME280_pressure;Samples;Min_cycle;Max_cycle;Signal;HPM_P1;HPM_P2
2021/05/08 00:01:43;;;;;;;8.95;6.55;;;4.90;5.50;;;;;;5024685;28;20531;-65
2021/05/08 00:04:31;;;;;;;9.48;6.95;;;4.90;4.80;;;;;;5019888;28;20042;-63
2021/05/08 00:07:19;;;;;;;8.65;7.15;;;4.70;6.40;;;;;;5024926;28;20064;-64
2021/05/08 00:10:08;;;;;;;9.15;7.45;;;4.50;8.60;;;;;;5022456;28;20045;-63
2021/05/08 00:12:56;;;;;;;11.02;7.47;;;4.40;9.20;;;;;;5021815;28;20525;-64
2021/05/08 00:15:47;;;;;;;9.85;7.05;;;4.30;10.30;;;;;;5023518;28;20167;-63
2021/05/08 00:18:35;;;;;;;8.15;6.93;;;4.30;12.20;;;;;;5021298;28;20037;-64
2021/05/08 00:21:23;;;;;;;8.43;7.28;;;4.30;11.90;;;;;;5025287;28;20053;-64
2021/05/08 00:24:11;;;;;;;10.00;7.55;;;4.30;12.30;;;;;;5027173;28;20060;-63
2021/05/08 00:26:59;;;;;;;8.35;6.82;;;4.30;13.10;;;;;;5029759;28;20123;-63
2021/05/08 00:29:46;;;;;;;7.97;6.75;;;4.30;12.70;;;;;;5028361;28;20465;-64
2021/05/08 00:32:35;;;;;;;11.38;6.68;;;4.40;11.20;;;;;;5023887;28;20065;-64
2021/05/08 00:35:23;;;;;;;9.45;6.82;;;4.40;11.00;;;;;;5025312;28;20053;-64
2021/05/08 00:38:11;;;;;;;9.60;7.00;;;4.50;9.80;;;;;;5028006;28;20052;-63
2021/05/08 00:40:58;;;;;;;8.98;6.88;;;4.60;10.40;;;;;;5027943;28;20100;-64
2021/05/08 00:43:46;;;;;;;12.88;7.90;;;4.60;10.50;;;;;;5024479;28;20049;-64
2021/05/08 00:46:34;;;;;;;9.63;8.02;;;4.60;10.80;;;;;;5025518;28;20117;-63
2021/05/08 00:49:26;;;;;;;11.57;8.35;;;4.60;10.10;;;;;;5023935;28;20049;-64
2021/05/08 00:52:16;;;;;;;11.65;7.03;;;4.60;10.00;;;;;;5027173;28;20045;-65
2021/05/08 00:55:05;;;;;;;10.93;7.68;;;4.80;8.80;;;;;;5025519;28;20041;-63
2021/05/08 00:57:52;;;;;;;11.68;8.13;;;4.70;8.80;;;;;;5027911;28;20052;-63
2021/05/08 01:00:41;;;;;;;11.15;8.13;;;4.70;8.80;;;;;;5033065;28;20046;-65
2021/05/08 01:03:32;;;;;;;13.38;8.10;;;4.80;8.80;;;;;;5026646;28;20045;-64
2021/05/08 01:06:26;;;;;;;9.50;7.20;;;4.70;8.90;;;;;;5027134;28;20310;-64
2021/05/08 01:09:14;;;;;;;9.60;7.43;;;4.70;8.80;;;;;;5026861;28;20132;-64
2021/05/08 01:12:06;;;;;;;10.32;8.30;;;4.70;9.10;;;;;;5026372;28;20072;-64
2021/05/08 01:15:04;;;;;;;12.20;7.78;;;4.70;8.80;;;;;;5025803;28;21552;-64
2021/05/08 01:17:54;;;;;;;13.23;7.88;;;4.70;8.80;;;;;;5029137;28;20057;-63
2021/05/08 01:20:46;;;;;;;10.15;7.78;;;4.70;8.80;;;;;;5027945;28;20265;-64
2021/05/08 01:23:36;;;;;;;10.43;7.45;;;4.60;9.90;;;;;;5025291;28;20058;-64
2021/05/08 01:26:26;;;;;;;9.90;7.32;;;4.50;10.50;;;;;;5025099;28;20052;-64
2021/05/08 01:29:23;;;;;;;10.77;7.63;;;4.50;9.90;;;;;;5026734;28;20049;-64
2021/05/08 01:32:12;;;;;;;10.40;8.07;;;4.40;10.50;;;;;;5026347;28;20033;-64
2021/05/08 01:35:03;;;;;;;12.10;8.23;;;4.40;10.70;;;;;;5025559;28;20050;-63
2021/05/08 01:38:00;;;;;;;11.27;8.00;;;4.50;11.00;;;;;;5027487;28;20041;-64
2021/05/08 01:41:02;;;;;;;9.18;7.72;;;4.40;11.30;;;;;;5022661;28;20489;-64
2021/05/08 01:43:54;;;;;;;11.00;8.18;;;4.50;10.50;;;;;;5021827;28;20033;-64
2021/05/08 01:46:42;;;;;;;11.63;7.88;;;4.40;10.60;;;;;;5027707;28;20038;-63
2021/05/08 01:49:31;;;;;;;11.30;8.07;;;4.40;10.70;;;;;;5026575;28;20138;-63
2021/05/08 01:52:20;;;;;;;12.20;8.90;;;4.30;10.80;;;;;;5026468;28;20045;-63
2021/05/08 01:55:13;;;;;;;13.80;7.97;;;4.30;11.30;;;;;;5024065;28;20507;-64
2021/05/08 01:58:02;;;;;;;12.57;8.52;;;4.20;12.00;;;;;;5030712;28;20103;-62
2021/05/08 02:00:50;;;;;;;10.30;8.27;;;4.30;11.70;;;;;;5029883;28;20506;-63
2021/05/08 02:03:39;;;;;;;11.85;8.48;;;4.30;11.60;;;;;;5024488;28;20053;-64
2021/05/08 02:06:27;;;;;;;12.90;8.88;;;4.20;12.10;;;;;;5026242;28;20052;-63
2021/05/08 02:09:17;;;;;;;13.45;8.90;;;4.20;11.60;;;;;;5030845;28;20422;-63
2021/05/08 02:12:06;;;;;;;14.00;9.07;;;4.20;12.30;;;;;;5023853;28;20049;-63
2021/05/08 02:14:56;;;;;;;11.68;8.90;;;4.00;13.40;;;;;;5023952;28;20048;-63
2021/05/08 02:17:45;;;;;;;13.52;9.75;;;3.90;14.50;;;;;;5027871;28;20087;-63
2021/05/08 02:20:36;;;;;;;11.27;8.88;;;3.90;15.40;;;;;;5027012;28;20522;-62
2021/05/08 02:23:27;;;;;;;10.10;8.35;;;4.00;14.70;;;;;;5022947;28;20050;-63
2021/05/08 02:26:18;;;;;;;14.73;8.85;;;4.00;13.30;;;;;;5022636;28;20042;-63
2021/05/08 02:29:09;;;;;;;11.18;8.48;;;4.00;13.70;;;;;;5024345;28;20733;-63
2021/05/08 02:31:58;;;;;;;10.15;8.10;;;3.90;14.00;;;;;;5025520;28;20042;-62
2021/05/08 02:34:50;;;;;;;10.93;9.05;;;3.90;15.20;;;;;;5023904;28;20056;-63
2021/05/08 02:37:38;;;;;;;11.63;8.98;;;3.90;15.20;;;;;;5028735;28;20417;-63
2021/05/08 02:40:28;;;;;;;10.02;7.70;;;3.80;15.30;;;;;;5020220;28;20056;-63
2021/05/08 02:43:16;;;;;;;12.95;8.65;;;3.60;15.70;;;;;;5021162;28;20565;-65
2021/05/08 02:46:10;;;;;;;9.45;8.05;;;3.60;17.00;;;;;;5021257;28;20044;-63
2021/05/08 02:49:00;;;;;;;12.50;8.20;;;3.50;17.10;;;;;;5022642;28;20038;-63
2021/05/08 02:51:50;;;;;;;10.65;7.22;;;3.50;17.30;;;;;;5024086;28;20041;-63
2021/05/08 02:54:39;;;;;;;7.90;6.72;;;3.50;15.40;;;;;;5021309;28;20053;-63
2021/05/08 02:57:30;;;;;;;9.25;6.68;;;3.60;15.20;;;;;;5024316;28;20131;-62
2021/05/08 03:00:20;;;;;;;8.40;6.53;;;3.70;13.60;;;;;;5023431;28;20048;-62
2021/05/08 03:03:11;;;;;;;10.65;6.70;;;3.70;12.80;;;;;;5022121;28;20482;-64
2021/05/08 03:06:01;;;;;;;7.85;6.47;;;3.80;11.40;;;;;;5026691;28;20041;-63
2021/05/08 03:08:49;;;;;;;8.40;6.50;;;3.80;11.80;;;;;;5020216;28;20412;-63
2021/05/08 03:11:41;;;;;;;10.43;7.00;;;3.70;12.30;;;;;;5024235;28;20038;-63
2021/05/08 03:14:32;;;;;;;9.63;7.32;;;3.70;13.30;;;;;;5023468;28;20049;-62
2021/05/08 03:17:37;;;;;;;10.68;8.05;;;3.60;13.90;;;;;;5026050;28;20052;-63
2021/05/08 03:20:27;;;;;;;10.48;7.78;;;3.50;14.90;;;;;;5021825;28;20041;-63
2021/05/08 03:23:19;;;;;;;10.20;7.30;;;3.50;15.20;;;;;;5022902;28;20098;-63
2021/05/08 03:26:07;;;;;;;10.30;7.72;;;3.50;15.20;;;;;;5024118;28;20060;-63
2021/05/08 03:28:55;;;;;;;10.82;8.02;;;3.40;15.10;;;;;;5023869;28;20045;-63
2021/05/08 03:31:44;;;;;;;11.48;8.05;;;3.50;15.20;;;;;;5024810;28;20056;-63
2021/05/08 03:34:33;;;;;;;8.02;6.80;;;3.40;15.10;;;;;;5021924;28;20049;-62
2021/05/08 03:37:21;;;;;;;10.73;7.53;;;3.50;15.20;;;;;;5026988;28;20038;-63
2021/05/08 03:40:12;;;;;;;8.32;7.18;;;3.60;13.70;;;;;;5024387;28;20123;-63
2021/05/08 03:43:00;;;;;;;10.35;7.53;;;3.60;13.10;;;;;;5025520;28;20068;-64
2021/05/08 03:45:52;;;;;;;9.60;6.88;;;3.70;12.70;;;;;;5021727;28;20531;-63
2021/05/08 03:48:40;;;;;;;10.60;6.93;;;3.70;12.20;;;;;;5022237;28;20041;-63
2021/05/08 03:51:32;;;;;;;10.57;7.35;;;3.80;11.50;;;;;;5020447;28;20077;-63
2021/05/08 03:54:23;;;;;;;11.85;6.90;;;3.80;10.90;;;;;;5019417;28;20418;-63
2021/05/08 03:57:15;;;;;;;9.93;7.03;;;3.90;9.70;;;;;;5017172;28;20049;-63
2021/05/08 04:00:08;;;;;;;11.25;7.03;;;3.90;9.50;;;;;;5020890;28;20405;-64
2021/05/08 04:02:57;;;;;;;11.25;6.93;;;3.90;9.40;;;;;;5022763;28;20041;-64
2021/05/08 04:05:45;;;;;;;7.05;6.30;;;3.80;9.80;;;;;;5020985;28;20483;-63
2021/05/08 04:08:36;;;;;;;10.20;6.35;;;3.90;9.80;;;;;;5026489;28;20055;-63
2021/05/08 04:11:24;;;;;;;9.82;6.82;;;3.90;10.00;;;;;;5024237;28;20120;-64
2021/05/08 04:14:14;;;;;;;8.18;6.05;;;4.80;5.30;;;;;;5022584;28;20041;-63
2021/05/08 04:17:02;;;;;;;10.38;6.32;;;4.50;4.30;;;;;;5023175;28;20452;-64
2021/05/08 04:19:53;;;;;;;7.75;6.35;;;4.70;3.10;;;;;;5020644;28;20045;-63
2021/05/08 04:22:45;;;;;;;10.35;6.05;;;4.60;3.60;;;;;;5025047;28;20041;-63
2021/05/08 04:25:36;;;;;;;7.60;5.75;;;4.60;3.80;;;;;;5022245;28;20080;-63
2021/05/08 04:28:24;;;;;;;10.07;5.53;;;5.70;1.00;;;;;;5021498;28;20474;-65
2021/05/08 04:31:14;;;;;;;7.95;5.35;;;7.00;1.00;;;;;;5020536;28;20493;-64
2021/05/08 04:34:03;;;;;;;8.25;5.68;;;7.00;1.00;;;;;;5020410;28;20443;-65
2021/05/08 04:36:57;;;;;;;7.22;5.70;;;7.50;1.00;;;;;;5033090;28;20042;-63
2021/05/08 04:39:48;;;;;;;6.60;4.95;;;6.70;1.00;;;;;;5020493;28;20487;-64
2021/05/08 04:42:37;;;;;;;6.40;4.90;;;7.50;1.00;;;;;;5021412;28;20048;-64
2021/05/08 04:45:31;;;;;;;6.68;4.82;;;8.00;1.00;;;;;;5020286;28;20056;-63
2021/05/08 04:48:23;;;;;;;6.22;4.43;;;8.40;1.00;;;;;;5024724;28;20413;-63
2021/05/08 04:51:12;;;;;;;7.97;4.78;;;8.10;1.00;;;;;;5022562;28;20159;-64
2021/05/08 04:54:04;;;;;;;6.65;4.90;;;7.70;1.00;;;;;;5022234;28;20052;-63
2021/05/08 04:56:57;;;;;;;31.75;6.22;;;8.60;1.00;;;;;;5021702;28;20045;-64
2021/05/08 04:59:46;;;;;;;7.78;5.32;;;9.20;1.00;;;;;;5020801;28;20045;-64
2021/05/08 05:02:34;;;;;;;6.15;4.97;;;9.40;1.00;;;;;;5026220;28;20041;-64
2021/05/08 05:05:24;;;;;;;6.45;5.05;;;10.00;1.00;;;;;;5022451;28;20501;-64
2021/05/08 05:08:19;;;;;;;7.03;5.28;;;9.10;1.00;;;;;;5021529;28;20094;-64
2021/05/08 05:11:09;;;;;;;6.15;4.80;;;8.90;1.00;;;;;;5025257;28;20053;-63
2021/05/08 05:14:00;;;;;;;6.82;5.18;;;9.60;1.00;;;;;;5025193;28;20474;-66
2021/05/08 05:16:52;;;;;;;11.20;5.20;;;10.20;1.00;;;;;;5030283;28;20437;-63
2021/05/08 05:19:43;;;;;;;6.68;5.07;;;10.20;1.00;;;;;;5025208;28;20456;-64
2021/05/08 05:22:32;;;;;;;7.47;5.32;;;10.40;1.00;;;;;;5022234;28;20045;-64
2021/05/08 05:25:20;;;;;;;7.97;5.85;;;11.00;1.00;;;;;;5025909;28;20494;-64
2021/05/08 05:28:22;;;;;;;8.75;5.70;;;11.70;1.00;;;;;;5033634;28;20052;-66
2021/05/08 05:31:14;;;;;;;7.13;5.38;;;11.10;1.00;;;;;;5026912;28;20140;-64
2021/05/08 05:34:03;;;;;;;7.40;5.40;;;11.00;1.00;;;;;;5026072;28;20075;-64
2021/05/08 05:36:52;;;;;;;12.65;6.38;;;9.60;1.00;;;;;;5028657;28;20084;-63
2021/05/08 05:39:44;;;;;;;8.13;5.90;;;10.70;1.00;;;;;;5023960;28;20171;-64
2021/05/08 05:42:33;;;;;;;7.50;5.45;;;11.30;1.00;;;;;;5023426;28;20046;-64
2021/05/08 05:45:24;;;;;;;6.82;5.55;;;10.40;1.00;;;;;;5026435;28;20042;-64
2021/05/08 05:48:16;;;;;;;6.65;5.60;;;10.30;1.00;;;;;;5026716;28;20037;-64
2021/05/08 05:51:07;;;;;;;7.85;5.85;;;8.90;1.00;;;;;;5025271;28;20122;-64
2021/05/08 05:53:59;;;;;;;9.27;6.10;;;8.20;1.00;;;;;;5026179;28;20044;-63
2021/05/08 05:56:53;;;;;;;8.02;6.20;;;8.30;1.00;;;;;;5028264;28;20556;-64
2021/05/08 05:59:41;;;;;;;6.85;5.78;;;8.40;1.00;;;;;;5026282;28;20041;-66
2021/05/08 06:02:29;;;;;;;6.80;5.75;;;8.20;1.00;;;;;;5023688;28;20040;-64
2021/05/08 06:05:18;;;;;;;7.75;5.43;;;8.10;1.00;;;;;;5027086;28;20051;-64
2021/05/08 06:08:12;;;;;;;8.27;6.03;;;8.00;1.00;;;;;;5028319;28;20745;-64
2021/05/08 06:11:01;;;;;;;6.63;5.38;;;8.20;1.00;;;;;;5025167;28;20046;-64
2021/05/08 06:13:50;;;;;;;7.18;5.68;;;8.30;1.00;;;;;;5027151;28;20464;-63
2021/05/08 06:16:38;;;;;;;11.13;6.70;;;8.40;1.00;;;;;;5026873;28;20053;-64
2021/05/08 06:19:26;;;;;;;7.00;5.53;;;8.50;1.00;;;;;;5021913;28;20041;-65
2021/05/08 06:22:14;;;;;;;12.30;6.57;;;9.10;1.00;;;;;;5033036;28;20051;-64
2021/05/08 06:25:03;;;;;;;6.32;5.32;;;10.50;1.00;;;;;;5027033;28;20073;-64
2021/05/08 06:27:54;;;;;;;7.97;5.82;;;11.70;1.00;;;;;;5028395;28;20049;-64
2021/05/08 06:30:45;;;;;;;9.07;5.90;;;11.20;1.00;;;;;;5022059;28;20494;-64
2021/05/08 06:33:34;;;;;;;8.75;5.60;;;10.30;1.00;;;;;;5023306;28;20041;-65
2021/05/08 06:36:23;;;;;;;8.38;5.57;;;9.80;1.00;;;;;;5023137;28;20044;-64
2021/05/08 06:39:11;;;;;;;7.72;5.82;;;9.00;1.00;;;;;;5024179;28;20041;-65
2021/05/08 06:42:00;;;;;;;7.78;5.60;;;9.10;1.00;;;;;;5026602;28;20421;-65
2021/05/08 06:44:49;;;;;;;9.88;6.15;;;9.30;1.00;;;;;;5024064;28;20416;-64
2021/05/08 06:47:42;;;;;;;7.68;5.50;;;9.30;1.00;;;;;;5025124;28;20187;-65
2021/05/08 06:50:31;;;;;;;8.25;5.38;;;9.60;1.00;;;;;;5022548;28;20144;-64
2021/05/08 06:53:18;;;;;;;7.25;5.15;;;9.70;1.00;;;;;;5022286;28;20049;-63
2021/05/08 06:56:06;;;;;;;6.57;4.93;;;9.50;1.00;;;;;;5022721;28;20053;-64
2021/05/08 06:58:55;;;;;;;6.35;4.82;;;9.90;1.00;;;;;;5024589;28;20077;-65
2021/05/08 07:01:44;;;;;;;9.25;5.45;;;10.00;1.00;;;;;;5022161;28;20107;-64
2021/05/08 07:04:33;;;;;;;5.88;4.95;;;9.80;1.00;;;;;;5021344;28;20041;-64
2021/05/08 07:07:21;;;;;;;5.70;4.60;;;10.20;1.00;;;;;;5023589;28;20564;-63
2021/05/08 07:10:09;;;;;;;5.85;4.25;;;10.30;1.00;;;;;;5024973;28;20146;-64
2021/05/08 07:12:56;;;;;;;7.53;4.90;;;10.40;1.00;;;;;;5020703;28;20525;-64
2021/05/08 07:15:44;;;;;;;7.22;4.80;;;10.70;1.00;;;;;;5024972;28;20111;-63
2021/05/08 07:18:36;;;;;;;7.78;4.75;;;10.80;1.00;;;;;;5026646;28;20135;-63
2021/05/08 07:21:24;;;;;;;10.43;4.80;;;10.90;1.00;;;;;;5025406;28;20390;-64
2021/05/08 07:24:12;;;;;;;8.85;4.40;;;11.20;1.00;;;;;;5022569;28;20042;-64
2021/05/08 07:26:59;;;;;;;5.50;4.07;;;11.20;1.00;;;;;;5024402;28;20167;-64
2021/05/08 07:29:46;;;;;;;7.03;4.22;;;12.20;1.00;;;;;;5026322;28;20053;-63
2021/05/08 07:32:34;;;;;;;8.20;3.95;;;12.40;1.00;;;;;;5022916;28;20046;-63
2021/05/08 07:35:21;;;;;;;7.95;4.30;;;12.70;1.00;;;;;;5021179;28;20045;-64
2021/05/08 07:38:10;;;;;;;7.50;3.88;;;12.50;1.00;;;;;;5025541;28;20129;-64
2021/05/08 07:40:58;;;;;;;5.80;3.60;;;12.10;1.00;;;;;;5021463;28;20634;-64
2021/05/08 07:43:45;;;;;;;4.32;3.60;;;11.70;1.00;;;;;;5022047;28;20135;-64
2021/05/08 07:46:32;;;;;;;5.78;4.20;;;12.10;1.00;;;;;;5021479;28;20049;-63
2021/05/08 07:49:19;;;;;;;11.30;4.47;;;12.30;1.00;;;;;;5022877;28;20128;-64
2021/05/08 07:52:07;;;;;;;7.20;4.00;;;12.30;1.00;;;;;;5022560;28;20049;-65
2021/05/08 07:54:55;;;;;;;13.05;3.47;;;12.40;1.00;;;;;;5026087;28;20488;-65
2021/05/08 07:57:42;;;;;;;8.25;4.32;;;12.20;1.00;;;;;;5025248;28;20127;-64
2021/05/08 08:00:29;;;;;;;8.02;3.47;;;12.40;1.00;;;;;;5020735;28;20055;-65
2021/05/08 08:03:17;;;;;;;5.30;3.50;;;12.60;1.00;;;;;;5020378;28;20120;-64
2021/05/08 08:06:16;;;;;;;6.13;3.13;;;12.70;1.00;;;;;;5021619;28;20076;-65
2021/05/08 08:09:03;;;;;;;4.40;3.13;;;12.70;1.00;;;;;;5026710;28;20048;-64
2021/05/08 08:11:51;;;;;;;6.03;3.40;;;12.60;1.00;;;;;;5022426;28;20065;-65
2021/05/08 08:14:38;;;;;;;7.90;3.33;;;12.80;1.00;;;;;;5021682;28;20081;-63
2021/05/08 08:17:27;;;;;;;6.68;3.70;;;13.00;1.00;;;;;;5023304;28;20773;-64
2021/05/08 08:20:15;;;;;;;6.22;3.67;;;13.10;1.00;;;;;;5021853;28;20864;-63
2021/05/08 08:23:03;;;;;;;3.55;3.10;;;13.40;1.00;;;;;;5021713;28;20061;-63
2021/05/08 08:25:50;;;;;;;6.20;3.22;;;13.40;1.00;;;;;;5018829;28;20048;-64
2021/05/08 08:28:38;;;;;;;5.65;3.35;;;13.50;1.00;;;;;;5023200;28;20055;-65
2021/05/08 08:31:26;;;;;;;5.68;3.72;;;13.40;1.00;;;;;;5022393;28;20467;-63
2021/05/08 08:34:14;;;;;;;3.95;3.42;;;13.60;1.00;;;;;;5023924;28;20493;-63
2021/05/08 08:37:02;;;;;;;5.68;2.95;;;14.00;1.00;;;;;;5022813;28;20143;-64
2021/05/08 08:39:49;;;;;;;5.38;3.25;;;14.10;1.00;;;;;;5020575;28;20168;-64
2021/05/08 08:42:37;;;;;;;6.53;3.40;;;14.20;1.00;;;;;;5018254;28;20041;-64
2021/05/08 08:45:26;;;;;;;3.13;2.60;;;14.50;1.00;;;;;;5029045;28;20175;-64
2021/05/08 08:48:21;;;;;;;6.00;3.03;;;14.40;1.00;;;;;;5027744;28;20200;-65
2021/05/08 08:51:09;;;;;;;7.03;3.20;;;14.70;1.00;;;;;;5024292;28;20045;-65
2021/05/08 08:53:57;;;;;;;5.15;3.03;;;15.00;1.00;;;;;;5026530;28;20046;-64
2021/05/08 08:56:46;;;;;;;4.20;3.03;;;15.00;1.00;;;;;;5026066;28;20394;-65
2021/05/08 08:59:33;;;;;;;4.15;2.45;;;15.00;1.00;;;;;;5026435;28;20077;-65
2021/05/08 09:02:25;;;;;;;6.13;3.33;;;15.10;1.00;;;;;;5025146;28;20513;-65
2021/05/08 09:05:19;;;;;;;4.35;2.47;;;15.70;1.00;;;;;;5025676;28;20072;-66
2021/05/08 09:08:08;;;;;;;4.00;2.30;;;15.50;1.00;;;;;;5026839;28;20680;-66
2021/05/08 09:11:19;;;;;;;3.20;2.47;;;14.70;1.00;;;;;;5027664;28;20239;-64
2021/05/08 09:14:21;;;;;;;4.07;2.40;;;15.10;1.00;;;;;;5026627;28;20052;-64
2021/05/08 09:17:10;;;;;;;4.88;2.90;;;15.40;1.00;;;;;;5025715;28;20042;-64
2021/05/08 09:20:00;;;;;;;3.03;2.20;;;15.00;1.00;;;;;;5020857;28;20472;-64
2021/05/08 09:22:49;;;;;;;5.40;2.30;;;15.40;1.00;;;;;;5030539;28;20049;-65
2021/05/08 09:25:55;;;;;;;5.00;2.33;;;15.40;1.00;;;;;;5033365;22;20072;-87
2021/05/08 09:28:57;;;;;;;4.03;2.30;;;15.40;1.00;;;;;;5027586;28;20113;-87
2021/05/08 09:36:03;;;;;;;4.15;2.40;;;15.60;1.00;;;;;;4964201;28;20082;-87
2021/05/08 09:38:50;;;;;;;6.53;2.58;;;14.80;1.00;;;;;;5019034;28;20064;-88
2021/05/08 09:41:48;;;;;;;3.08;2.13;;;15.90;1.00;;;;;;5028237;28;20057;-88
2021/05/08 09:44:58;;;;;;;3.72;2.00;;;15.90;1.00;;;;;;5024522;28;20541;-88
2021/05/08 09:47:46;;;;;;;4.72;2.40;;;15.40;1.00;;;;;;5023632;28;20522;-88
2021/05/08 09:50:35;;;;;;;3.45;2.33;;;14.80;1.00;;;;;;5033566;28;20104;-87
2021/05/08 09:53:34;;;;;;;3.15;2.10;;;15.40;1.00;;;;;;5024903;28;20507;-88
2021/05/08 09:56:41;;;;;;;3.85;2.30;;;15.30;1.00;;;;;;5024113;28;20057;-89
2021/05/08 09:59:34;;;;;;;3.95;2.50;;;15.70;1.00;;;;;;5024234;28;20048;-88
2021/05/08 10:02:21;;;;;;;5.35;2.10;;;15.40;1.00;;;;;;5025427;28;20188;-88
2021/05/08 10:05:29;;;;;;;3.45;2.15;;;15.50;1.00;;;;;;5026023;28;20128;-89
2021/05/08 10:08:17;;;;;;;4.65;2.10;;;15.80;1.00;;;;;;5029347;28;20061;-89
2021/05/08 10:11:05;;;;;;;6.97;2.03;;;15.60;1.00;;;;;;5024126;28;20069;-88
2021/05/08 10:13:54;;;;;;;4.22;1.88;;;16.30;1.00;;;;;;5031641;28;20041;-90
2021/05/08 10:16:46;;;;;;;2.50;1.70;;;16.90;1.00;;;;;;5034375;28;20042;-88
2021/05/08 10:19:37;;;;;;;4.95;2.38;;;16.90;1.00;;;;;;5026896;28;20131;-88
2021/05/08 10:22:33;;;;;;;4.15;1.70;;;16.80;1.00;;;;;;5028283;28;20126;-88
2021/05/08 10:25:23;;;;;;;3.13;1.90;;;17.00;1.00;;;;;;5024845;28;20046;-88
2021/05/08 10:28:11;;;;;;;2.40;1.83;;;16.90;1.00;;;;;;5028159;28;20058;-89
2021/05/08 10:30:59;;;;;;;2.63;1.80;;;17.20;1.00;;;;;;5020361;28;20048;-88
2021/05/08 10:33:52;;;;;;;3.00;1.77;;;17.30;1.00;;;;;;5029107;28;20052;-87
2021/05/08 10:36:49;;;;;;;3.47;2.30;;;17.20;1.00;;;;;;5034855;28;20068;-88
2021/05/08 10:39:55;;;;;;;3.35;1.80;;;17.00;1.00;;;;;;5028713;28;20169;-88
2021/05/08 10:42:45;;;;;;;;;;;17.40;1.00;;;;;;5030966;28;20041;-87
2021/05/08 10:45:34;;;;;;;3.92;1.80;;;17.60;1.00;;;;;;5030201;28;19975;-89
2021/05/08 10:48:23;;;;;;;3.53;1.88;;;17.30;1.00;;;;;;5026656;28;20119;-88
2021/05/08 10:51:11;;;;;;;4.57;1.70;;;16.80;1.00;;;;;;5031275;28;20090;-90
2021/05/08 10:54:00;;;;;;;2.95;2.15;;;17.10;1.00;;;;;;5028102;28;20034;-87
2021/05/08 10:57:15;;;;;;;4.63;1.85;;;17.50;1.00;;;;;;5041406;28;20063;-89
2021/05/08 11:00:43;;;;;;;4.57;2.20;;;17.10;1.00;;;;;;5040307;28;20046;-88
2021/05/08 11:04:05;;;;;;;3.22;1.85;;;17.20;1.00;;;;;;5034713;28;20061;-88
2021/05/08 11:07:29;;;;;;;2.10;1.88;;;17.40;1.00;;;;;;5037655;28;20521;-87
2021/05/08 11:10:39;;;;;;;2.35;1.60;;;17.50;1.00;;;;;;5037820;28;20049;-90
2021/05/08 11:13:44;;;;;;;3.83;2.00;;;16.80;1.00;;;;;;5033021;28;20065;-87
2021/05/08 11:16:32;;;;;;;3.13;1.77;;;17.10;1.00;;;;;;5037481;28;20048;-89
2021/05/08 11:19:26;;;;;;;2.70;1.95;;;17.50;1.00;;;;;;5038945;28;20276;-88
2021/05/08 11:22:16;;;;;;;2.55;2.00;;;17.60;1.00;;;;;;5026766;28;20053;-87
2021/05/08 11:25:33;;;;;;;4.82;2.00;;;17.30;1.00;;;;;;5026220;28;20152;-87
2021/05/08 11:28:24;;;;;;;4.68;1.63;;;18.40;1.00;;;;;;5026131;28;20410;-88
2021/05/08 11:31:23;;;;;;;3.78;1.75;;;17.50;1.00;;;;;;5030583;28;20049;-88
2021/05/08 11:34:17;;;;;;;2.50;2.00;;;18.30;1.00;;;;;;5028430;28;20067;-87
2021/05/08 11:37:13;;;;;;;7.22;1.92;;;18.20;1.00;;;;;;5029321;28;20045;-88
2021/05/08 11:40:12;;;;;;;3.35;1.67;;;18.20;1.00;;;;;;5030899;28;20059;-87
2021/05/08 11:43:02;;;;;;;2.40;1.60;;;17.80;1.00;;;;;;5023224;28;20044;-88
2021/05/08 11:45:54;;;;;;;4.90;1.60;;;18.60;1.00;;;;;;5028992;28;20532;-91
2021/05/08 11:48:52;;;;;;;3.30;1.65;;;18.60;1.00;;;;;;5027750;28;20128;-87
2021/05/08 11:51:50;;;;;;;2.90;1.70;;;18.40;1.00;;;;;;5024922;28;20068;-86
2021/05/08 11:54:43;;;;;;;3.72;1.50;;;18.00;1.00;;;;;;5024711;28;20599;-87
2021/05/08 11:57:36;;;;;;;3.75;1.50;;;18.60;1.00;;;;;;5023124;28;20041;-86
2021/05/08 12:00:31;;;;;;;3.85;1.60;;;19.00;1.00;;;;;;5017559;28;20133;-87
2021/05/08 12:03:23;;;;;;;2.43;1.60;;;18.00;1.00;;;;;;5021494;28;20515;-86
2021/05/08 12:06:20;;;;;;;2.45;1.70;;;18.40;1.00;;;;;;5023703;28;20978;-88
2021/05/08 12:09:10;;;;;;;3.20;1.60;;;18.20;1.00;;;;;;5023411;28;20049;-87
2021/05/08 12:12:15;;;;;;;2.47;1.92;;;18.00;1.00;;;;;;5022845;28;20402;-87
2021/05/08 12:15:06;;;;;;;2.00;1.60;;;18.70;1.00;;;;;;5024782;28;20053;-87
2021/05/08 12:17:56;;;;;;;4.15;1.67;;;19.00;1.00;;;;;;5025279;28;20050;-86
2021/05/08 12:20:50;;;;;;;5.40;1.88;;;18.50;1.00;;;;;;5026500;28;20085;-88
2021/05/08 12:23:43;;;;;;;3.03;1.38;;;18.40;1.00;;;;;;5025641;28;20041;-89
2021/05/08 12:26:31;;;;;;;2.50;1.58;;;18.60;1.00;;;;;;5024627;28;20065;-87
2021/05/08 12:29:19;;;;;;;2.38;1.75;;;18.10;1.00;;;;;;5021110;28;20042;-86
2021/05/08 12:32:14;;;;;;;2.38;1.73;;;18.30;1.00;;;;;;5021693;28;20054;-86
2021/05/08 12:35:01;;;;;;;3.97;1.95;;;18.60;1.00;;;;;;5021526;28;20034;-86
2021/05/08 12:37:49;;;;;;;2.95;2.13;;;18.70;1.00;;;;;;5023561;28;20053;-87
2021/05/08 12:40:36;;;;;;;3.22;2.00;;;19.00;1.00;;;;;;5023583;28;20154;-86
2021/05/08 12:43:24;;;;;;;2.35;1.73;;;18.80;1.00;;;;;;5019965;28;20042;-86
2021/05/08 12:46:13;;;;;;;6.45;3.17;;;18.40;1.00;;;;;;5020442;28;20038;-86
2021/05/08 12:49:06;;;;;;;3.80;1.70;;;18.60;1.00;;;;;;5024345;28;20562;-86
2021/05/08 12:51:54;;;;;;;4.68;2.03;;;18.60;1.00;;;;;;5021200;28;20045;-86
2021/05/08 12:54:50;;;;;;;2.35;1.70;;;19.10;1.00;;;;;;5017505;28;20588;-87
2021/05/08 12:57:38;;;;;;;6.55;2.20;;;18.40;1.00;;;;;;5020371;28;20042;-87
2021/05/08 13:00:25;;;;;;;5.82;1.50;;;18.50;1.00;;;;;;5022007;28;20103;-86
2021/05/08 13:03:21;;;;;;;2.03;1.63;;;18.40;1.00;;;;;;5022281;28;20113;-86
2021/05/08 13:06:22;;;;;;;4.20;2.85;;;18.30;1.00;;;;;;5021596;28;20081;-85
2021/05/08 13:09:19;;;;;;;3.55;2.00;;;18.20;1.00;;;;;;5022134;28;20745;-87
2021/05/08 13:12:12;;;;;;;2.58;1.48;;;18.10;1.00;;;;;;5021805;28;20034;-85
2021/05/08 13:15:09;;;;;;;4.13;3.50;;;18.30;1.00;;;;;;5017096;28;20044;-86
2021/05/08 13:17:56;;;;;;;2.95;1.60;;;17.90;1.00;;;;;;5023504;28;20127;-86
2021/05/08 13:20:44;;;;;;;1.85;1.38;;;18.50;1.00;;;;;;5020143;28;20427;-86
2021/05/08 13:23:32;;;;;;;2.90;1.30;;;18.20;1.00;;;;;;5016531;28;20061;-87
2021/05/08 13:26:19;;;;;;;3.38;1.40;;;18.30;1.00;;;;;;5019372;28;20083;-86
2021/05/08 13:29:06;;;;;;;3.10;1.40;;;18.60;1.00;;;;;;5019134;28;20042;-86
2021/05/08 13:31:54;;;;;;;3.28;1.60;;;19.00;1.00;;;;;;5023341;28;20142;-86
2021/05/08 13:34:41;;;;;;;2.17;1.25;;;18.20;1.00;;;;;;5024850;28;20053;-85
2021/05/08 13:37:29;;;;;;;3.10;1.63;;;18.30;1.00;;;;;;5028743;28;20061;-87
2021/05/08 13:40:19;;;;;;;1.30;1.20;;;19.10;1.00;;;;;;5022163;28;20421;-86
2021/05/08 13:43:06;;;;;;;3.10;1.60;;;18.60;1.00;;;;;;5023192;28;20124;-87
2021/05/08 13:45:53;;;;;;;3.05;1.33;;;19.30;1.00;;;;;;5024293;28;20629;-85
2021/05/08 13:48:43;;;;;;;1.67;1.30;;;19.60;1.00;;;;;;5026632;28;20063;-86
2021/05/08 13:51:32;;;;;;;2.40;1.45;;;19.10;1.00;;;;;;5027547;28;20096;-85
2021/05/08 13:54:25;;;;;;;6.20;1.23;;;18.40;1.00;;;;;;5025906;28;20057;-85
2021/05/08 13:57:20;;;;;;;2.17;1.38;;;19.20;1.00;;;;;;5035781;28;20095;-85
2021/05/08 14:00:11;;;;;;;1.65;1.20;;;19.10;1.00;;;;;;5028666;28;20397;-85
2021/05/08 14:03:11;;;;;;;3.47;1.80;;;18.50;1.00;;;;;;5031528;28;20052;-86
2021/05/08 14:06:06;;;;;;;5.40;1.67;;;19.00;1.00;;;;;;5032053;28;20402;-87
2021/05/08 14:09:19;;;;;;;2.08;1.20;;;19.20;1.00;;;;;;5031854;28;20625;-86
2021/05/08 14:12:20;;;;;;;1.73;1.33;;;19.00;1.00;;;;;;5040290;28;20046;-86
2021/05/08 14:15:18;;;;;;;2.72;1.17;;;19.00;1.00;;;;;;5040322;28;20528;-87
2021/05/08 14:18:06;;;;;;;;;;;19.50;1.00;;;;;;5045620;28;20744;-86
2021/05/08 14:20:55;;;;;;;2.95;1.67;;;19.60;1.00;;;;;;5042223;28;19971;-88
2021/05/08 14:23:46;;;;;;;4.57;2.70;;;19.40;1.00;;;;;;5042549;28;20517;-87
2021/05/08 14:26:35;;;;;;;1.95;1.60;;;19.30;1.00;;;;;;5040443;28;20049;-86
2021/05/08 14:29:25;;;;;;;2.13;1.27;;;19.70;1.00;;;;;;5037388;28;20514;-86
2021/05/08 14:32:20;;;;;;;2.55;1.65;;;20.00;1.00;;;;;;5029302;28;20049;-86
2021/05/08 14:35:09;;;;;;;3.13;1.42;;;20.30;1.00;;;;;;5031895;28;20033;-86
2021/05/08 14:38:08;;;;;;;1.83;1.38;;;19.90;1.00;;;;;;5031736;28;20052;-85
2021/05/08 14:41:00;;;;;;;1.63;1.20;;;19.50;1.00;;;;;;5028460;28;20038;-85
2021/05/08 14:43:58;;;;;;;8.57;4.32;;;19.50;1.00;;;;;;5024617;28;20390;-85
2021/05/08 14:46:46;;;;;;;3.50;1.92;;;19.80;1.00;;;;;;5024620;28;20042;-85
2021/05/08 14:49:34;;;;;;;4.68;2.67;;;19.90;1.00;;;;;;5026269;28;20134;-85
2021/05/08 14:52:21;;;;;;;4.82;1.48;;;19.80;1.00;;;;;;5022925;28;20065;-86
2021/05/08 14:55:09;;;;;;;2.47;1.50;;;19.90;1.00;;;;;;5023369;28;20034;-84
2021/05/08 14:57:56;;;;;;;1.75;1.25;;;19.80;1.00;;;;;;5019792;28;20064;-86
2021/05/08 15:00:44;;;;;;;4.38;2.17;;;19.70;1.00;;;;;;5021944;28;20466;-86
2021/05/08 15:03:32;;;;;;;2.45;2.00;;;20.00;1.00;;;;;;5022605;28;20044;-86
2021/05/08 15:06:20;;;;;;;3.70;2.03;;;20.20;1.00;;;;;;5022206;28;20038;-86
2021/05/08 15:09:07;;;;;;;4.38;1.70;;;20.60;1.00;;;;;;5025018;28;20037;-85